createdAt,value
2023-02-05T00:00:20.075Z,-6.68
2023-02-05T00:02:47.111Z,-6.68
2023-02-05T00:05:13.797Z,-6.67
2023-02-05T00:07:40.475Z,-6.66
2023-02-05T00:10:07.509Z,-6.66
2023-02-05T00:12:34.374Z,-6.68
2023-02-05T00:15:01.023Z,-6.68
2023-02-05T00:17:28.690Z,-6.73
2023-02-05T00:19:55.471Z,-6.76
2023-02-05T00:22:22.426Z,-6.80
2023-02-05T00:24:49.080Z,-6.82
2023-02-05T00:27:15.778Z,-6.87
2023-02-05T00:29:42.486Z,-6.92
2023-02-05T00:32:09.155Z,-6.95
2023-02-05T00:34:35.817Z,-7.00
2023-02-05T00:37:02.463Z,-7.02
2023-02-05T00:39:29.170Z,-7.06
2023-02-05T00:41:55.922Z,-7.12
2023-02-05T00:44:22.596Z,-7.15
2023-02-05T00:46:51.449Z,-7.17
2023-02-05T00:49:18.098Z,-7.20
2023-02-05T00:51:44.780Z,-7.21
2023-02-05T00:54:11.605Z,-7.20
2023-02-05T00:56:38.292Z,-7.21
2023-02-05T00:59:05.017Z,-7.19
2023-02-05T01:01:31.919Z,-7.17
2023-02-05T01:03:58.778Z,-7.15
2023-02-05T01:06:25.448Z,-7.13
2023-02-05T01:08:52.206Z,-7.14
2023-02-05T01:11:20.113Z,-7.13
2023-02-05T01:13:46.840Z,-7.11
2023-02-05T01:16:13.944Z,-7.10
2023-02-05T01:18:40.909Z,-7.06
2023-02-05T01:21:07.579Z,-7.01
2023-02-05T01:23:34.234Z,-6.96
2023-02-05T01:26:00.910Z,-6.92
2023-02-05T01:28:27.614Z,-6.88
2023-02-05T01:30:54.348Z,-6.87
2023-02-05T01:33:21.061Z,-6.84
2023-02-05T01:35:48.924Z,-6.82
2023-02-05T01:38:16.005Z,-6.73
2023-02-05T01:40:42.720Z,-6.64
2023-02-05T01:43:17.291Z,-6.56
2023-02-05T01:46:07.081Z,-6.45
2023-02-05T01:48:42.697Z,-6.36
2023-02-05T01:51:13.245Z,-6.27
2023-02-05T01:53:40.365Z,-6.20
2023-02-05T01:56:12.838Z,-6.12
2023-02-05T01:58:49.642Z,-6.05
2023-02-05T02:01:16.604Z,-5.96
2023-02-05T02:03:44.129Z,-5.93
2023-02-05T02:06:10.886Z,-5.88
2023-02-05T02:08:37.599Z,-5.82
2023-02-05T02:11:07.323Z,-5.76
2023-02-05T02:13:35.669Z,-5.70
2023-02-05T02:16:03.865Z,-5.66
2023-02-05T02:18:32.976Z,-5.60
2023-02-05T02:21:08.555Z,-5.55
2023-02-05T02:23:50.204Z,-5.49
2023-02-05T02:27:02.146Z,-5.43
2023-02-05T02:29:47.014Z,-5.36
2023-02-05T02:32:20.633Z,-5.32
2023-02-05T02:34:53.912Z,-5.30
2023-02-05T02:37:26.589Z,-5.25
2023-02-05T02:40:08.342Z,-5.20
2023-02-05T02:42:43.314Z,-5.17
2023-02-05T02:45:13.012Z,-5.08
2023-02-05T02:47:47.909Z,-5.04
2023-02-05T02:50:33.163Z,-4.98
2023-02-05T02:53:12.876Z,-4.93
2023-02-05T02:55:43.818Z,-4.90
2023-02-05T02:58:18.426Z,-4.86
2023-02-05T03:00:47.176Z,-4.84
2023-02-05T03:03:16.845Z,-4.80
2023-02-05T03:05:46.722Z,-4.78
2023-02-05T03:08:37.746Z,-4.75
2023-02-05T03:11:13.656Z,-4.73
2023-02-05T03:13:41.721Z,-4.71
2023-02-05T03:16:09.409Z,-4.70
2023-02-05T03:18:37.166Z,-4.67
2023-02-05T03:21:09.233Z,-4.65
2023-02-05T03:23:35.910Z,-4.62
2023-02-05T03:26:02.578Z,-4.60
2023-02-05T03:28:29.314Z,-4.59
2023-02-05T03:31:22.694Z,-4.57
2023-02-05T03:34:16.032Z,-4.52
2023-02-05T03:36:59.720Z,-4.48
2023-02-05T03:39:54.320Z,-4.46
2023-02-05T03:42:32.321Z,-4.44
2023-02-05T03:44:58.935Z,-4.44
2023-02-05T03:47:40.638Z,-4.41
2023-02-05T03:50:20.438Z,-4.38
2023-02-05T03:53:12.965Z,-4.34
2023-02-05T03:55:46.605Z,-4.32
2023-02-05T03:58:35.104Z,-4.32
2023-02-05T04:01:02.148Z,-4.29
2023-02-05T04:03:28.866Z,-4.28
2023-02-05T04:05:56.367Z,-4.25
2023-02-05T04:08:23.072Z,-4.22
2023-02-05T04:10:49.714Z,-4.21
2023-02-05T04:13:16.420Z,-4.21
2023-02-05T04:15:43.868Z,-4.18
2023-02-05T04:18:10.537Z,-4.19
2023-02-05T04:20:37.231Z,-4.20
2023-02-05T04:23:03.902Z,-4.18
2023-02-05T04:25:30.546Z,-4.18
2023-02-05T04:27:57.257Z,-4.17
2023-02-05T04:30:24.097Z,-4.17
2023-02-05T04:32:50.805Z,-4.18
2023-02-05T04:35:17.552Z,-4.17
2023-02-05T04:37:44.266Z,-4.14
2023-02-05T04:40:11.494Z,-4.13
2023-02-05T04:42:38.330Z,-4.14
2023-02-05T04:45:06.027Z,-4.11
2023-02-05T04:47:33.234Z,-4.11
2023-02-05T04:49:59.925Z,-4.08
2023-02-05T04:52:26.694Z,-4.08
2023-02-05T04:54:53.347Z,-4.05
2023-02-05T04:57:20.037Z,-4.05
2023-02-05T04:59:46.710Z,-4.02
2023-02-05T05:02:13.562Z,-3.98
2023-02-05T05:04:42.857Z,-3.97
2023-02-05T05:07:10.376Z,-3.95
2023-02-05T05:09:37.455Z,-3.92
2023-02-05T05:12:05.715Z,-3.89
2023-02-05T05:14:32.383Z,-3.84
2023-02-05T05:16:59.036Z,-3.81
2023-02-05T05:19:25.708Z,-3.76
2023-02-05T05:21:52.369Z,-3.75
2023-02-05T05:24:19.199Z,-3.73
2023-02-05T05:26:46.620Z,-3.68
2023-02-05T05:29:13.662Z,-3.64
2023-02-05T05:31:41.155Z,-3.61
2023-02-05T05:34:07.944Z,-3.59
2023-02-05T05:36:34.797Z,-3.58
2023-02-05T05:39:21.401Z,-3.52
2023-02-05T05:42:06.691Z,-3.49
2023-02-05T05:44:33.339Z,-3.46
2023-02-05T05:47:00.043Z,-3.45
2023-02-05T05:49:26.708Z,-3.44
2023-02-05T05:51:53.492Z,-3.40
2023-02-05T05:54:20.167Z,-3.39
2023-02-05T05:56:46.946Z,-3.36
2023-02-05T05:59:13.606Z,-3.35
2023-02-05T06:01:40.265Z,-3.32
2023-02-05T06:04:07.115Z,-3.29
2023-02-05T06:06:34.121Z,-3.28
2023-02-05T06:09:00.807Z,-3.27
2023-02-05T06:11:27.512Z,-3.25
2023-02-05T06:13:54.248Z,-3.21
2023-02-05T06:16:20.959Z,-3.19
2023-02-05T06:18:47.687Z,-3.19
2023-02-05T06:21:14.623Z,-3.15
2023-02-05T06:23:41.343Z,-3.14
2023-02-05T06:26:08.028Z,-3.13
2023-02-05T06:28:34.766Z,-3.10
2023-02-05T06:31:01.496Z,-3.08
2023-02-05T06:33:28.218Z,-3.08
2023-02-05T06:35:54.904Z,-3.06
2023-02-05T06:38:21.568Z,-3.05
2023-02-05T06:40:48.981Z,-3.05
2023-02-05T06:43:15.923Z,-3.04
2023-02-05T06:45:42.583Z,-3.04
2023-02-05T06:48:09.313Z,-3.01
2023-02-05T06:50:35.958Z,-2.98
2023-02-05T06:53:02.643Z,-2.97
2023-02-05T06:55:29.293Z,-2.96
2023-02-05T06:57:55.942Z,-2.94
2023-02-05T07:00:22.711Z,-2.91
2023-02-05T07:02:49.460Z,-2.87
2023-02-05T07:05:16.210Z,-2.84
2023-02-05T07:07:42.920Z,-2.83
2023-02-05T07:10:09.860Z,-2.80
2023-02-05T07:12:36.578Z,-2.79
2023-02-05T07:15:03.554Z,-2.75
2023-02-05T07:17:30.256Z,-2.73
2023-02-05T07:19:56.966Z,-2.74
2023-02-05T07:22:23.593Z,-2.72
2023-02-05T07:24:50.447Z,-2.72
2023-02-05T07:27:17.342Z,-2.70
2023-02-05T07:29:43.977Z,-2.68
2023-02-05T07:32:10.681Z,-2.67
2023-02-05T07:34:37.364Z,-2.65
2023-02-05T07:37:04.056Z,-2.64
2023-02-05T07:39:30.709Z,-2.60
2023-02-05T07:41:57.364Z,-2.60
2023-02-05T07:44:24.004Z,-2.57
2023-02-05T07:46:50.729Z,-2.55
2023-02-05T07:49:17.563Z,-2.53
2023-02-05T07:51:44.229Z,-2.49
2023-02-05T07:54:14.588Z,-2.48
2023-02-05T07:56:42.493Z,-2.46
2023-02-05T07:59:09.242Z,-2.44
2023-02-05T08:01:36.031Z,-2.44
2023-02-05T08:04:02.791Z,-2.42
2023-02-05T08:06:29.501Z,-2.40
2023-02-05T08:08:56.238Z,-2.39
2023-02-05T08:11:22.904Z,-2.36
2023-02-05T08:13:49.598Z,-2.34
2023-02-05T08:16:16.873Z,-2.31
2023-02-05T08:18:47.498Z,-2.28
2023-02-05T08:21:14.303Z,-2.26
2023-02-05T08:23:40.957Z,-2.24
2023-02-05T08:26:07.646Z,-2.22
2023-02-05T08:28:34.451Z,-2.17
2023-02-05T08:31:01.188Z,-2.15
2023-02-05T08:33:27.881Z,-2.12
2023-02-05T08:35:54.615Z,-2.09
2023-02-05T08:38:21.256Z,-2.07
2023-02-05T08:40:47.981Z,-2.03
2023-02-05T08:43:14.649Z,-1.99
2023-02-05T08:45:41.376Z,-1.95
2023-02-05T08:48:08.074Z,-1.91
2023-02-05T08:50:34.746Z,-1.88
2023-02-05T08:53:01.444Z,-1.85
2023-02-05T08:55:28.189Z,-1.84
2023-02-05T08:57:55.612Z,-1.82
2023-02-05T09:00:22.429Z,-1.78
2023-02-05T09:02:49.525Z,-1.77
2023-02-05T09:05:16.301Z,-1.77
2023-02-05T09:07:43.003Z,-1.77
2023-02-05T09:10:11.915Z,-1.76
2023-02-05T09:12:39.240Z,-1.78
2023-02-05T09:15:07.070Z,-1.81
2023-02-05T09:17:33.827Z,-1.91
2023-02-05T09:20:00.588Z,-1.96
2023-02-05T09:22:27.288Z,-2.02
2023-02-05T09:24:53.951Z,-2.09
2023-02-05T09:27:20.637Z,-2.10
2023-02-05T09:29:47.282Z,-2.14
2023-02-05T09:32:14.046Z,-2.15
2023-02-05T09:34:40.791Z,-2.14
2023-02-05T09:37:07.438Z,-2.14
2023-02-05T09:40:18.529Z,-2.15
2023-02-05T09:42:27.807Z,-2.17
2023-02-05T09:45:21.423Z,-2.21
2023-02-05T09:47:59.925Z,-2.22
2023-02-05T09:50:32.049Z,-2.21
2023-02-05T09:53:08.777Z,-2.19
2023-02-05T09:55:44.783Z,-2.20
2023-02-05T09:58:16.413Z,-2.23
2023-02-05T10:00:54.998Z,-2.24
2023-02-05T10:03:49.659Z,-2.23
2023-02-05T10:06:36.506Z,-2.25
2023-02-05T10:09:42.101Z,-2.25
2023-02-05T10:12:24.002Z,-2.23
2023-02-05T10:15:21.577Z,-2.24
2023-02-05T10:18:03.459Z,-2.28
2023-02-05T10:20:53.038Z,-2.32
2023-02-05T10:23:47.035Z,-2.32
2023-02-05T10:26:15.176Z,-2.32
2023-02-05T10:29:21.640Z,-2.28
2023-02-05T10:32:00.483Z,-2.26
2023-02-05T10:35:00.002Z,-2.23
2023-02-05T10:37:51.167Z,-2.23
2023-02-05T10:40:31.389Z,-2.20
2023-02-05T10:43:07.078Z,-2.22
2023-02-05T10:45:34.065Z,-2.20
2023-02-05T10:48:27.019Z,-2.19
2023-02-05T10:51:04.165Z,-2.13
2023-02-05T10:53:31.331Z,-2.08
2023-02-05T10:56:00.276Z,-2.07
2023-02-05T10:58:40.494Z,-2.03
2023-02-05T11:01:32.164Z,-1.98
2023-02-05T11:04:13.762Z,-1.94
2023-02-05T11:06:51.186Z,-1.88
2023-02-05T11:09:26.800Z,-1.85
2023-02-05T11:11:55.795Z,-1.81
2023-02-05T11:14:34.535Z,-1.76
2023-02-05T11:17:26.812Z,-1.66
2023-02-05T11:19:56.666Z,-1.60
2023-02-05T11:22:31.766Z,-1.56
2023-02-05T11:25:06.323Z,-1.53
2023-02-05T11:27:35.408Z,-1.51
2023-02-05T11:30:47.691Z,-1.47
2023-02-05T11:33:22.855Z,-1.45
2023-02-05T11:35:58.220Z,-1.41
2023-02-05T11:38:32.391Z,-1.36
2023-02-05T11:41:07.367Z,-1.37
2023-02-05T11:43:40.567Z,-1.40
2023-02-05T11:46:10.231Z,-1.42
2023-02-05T11:48:55.823Z,-1.44
2023-02-05T11:51:45.869Z,-1.42
2023-02-05T11:54:19.684Z,-1.42
2023-02-05T11:57:27.539Z,-1.41
2023-02-05T12:00:18.531Z,-1.41
2023-02-05T12:02:45.424Z,-1.41
2023-02-05T12:05:12.482Z,-1.41
2023-02-05T12:07:41.886Z,-1.40
2023-02-05T12:10:26.140Z,-1.41
2023-02-05T12:13:12.082Z,-1.41
2023-02-05T12:15:53.945Z,-1.39
2023-02-05T12:18:46.103Z,-1.41
2023-02-05T12:21:45.837Z,-1.41
2023-02-05T12:24:33.445Z,-1.42
2023-02-05T12:27:25.838Z,-1.45
2023-02-05T12:30:28.429Z,-1.44
2023-02-05T12:33:23.941Z,-1.44
2023-02-05T12:36:37.189Z,-1.41
2023-02-05T12:39:06.778Z,-1.40
2023-02-05T12:41:55.168Z,-1.39
2023-02-05T12:44:48.892Z,-1.38
2023-02-05T12:47:44.806Z,-1.37
2023-02-05T12:50:36.056Z,-1.38
2023-02-05T12:53:05.642Z,-1.37
2023-02-05T12:55:41.062Z,-1.35
2023-02-05T12:58:11.575Z,-1.33
2023-02-05T13:00:44.976Z,-1.30
2023-02-05T13:03:25.170Z,-1.27
2023-02-05T13:05:57.319Z,-1.27
2023-02-05T13:08:48.811Z,-1.25
2023-02-05T13:11:25.740Z,-1.25
2023-02-05T13:13:59.135Z,-1.23
2023-02-05T13:16:45.964Z,-1.24
2023-02-05T13:19:42.687Z,-1.24
2023-02-05T13:22:42.538Z,-1.24
2023-02-05T13:25:38.341Z,-1.23
2023-02-05T13:28:40.582Z,-1.23
2023-02-05T13:31:27.856Z,-1.25
2023-02-05T13:33:57.330Z,-1.24
2023-02-05T13:36:23.913Z,-1.24
2023-02-05T13:39:13.542Z,-1.23
2023-02-05T13:41:58.422Z,-1.21
2023-02-05T13:44:38.381Z,-1.21
2023-02-05T13:47:19.954Z,-1.20
2023-02-05T13:50:01.723Z,-1.18
2023-02-05T13:52:49.528Z,-1.17
2023-02-05T13:55:53.911Z,-1.18
2023-02-05T13:58:43.567Z,-1.16
2023-02-05T14:01:24.415Z,-1.15
2023-02-05T14:04:03.228Z,-1.15
2023-02-05T14:06:35.572Z,-1.16
2023-02-05T14:09:08.387Z,-1.14
2023-02-05T14:11:53.978Z,-1.13
2023-02-05T14:14:32.717Z,-1.11
2023-02-05T14:17:01.382Z,-1.10
2023-02-05T14:19:56.976Z,-1.07
2023-02-05T14:22:44.291Z,-1.07
2023-02-05T14:25:36.634Z,-1.06
2023-02-05T14:28:15.495Z,-1.04
2023-02-05T14:30:58.855Z,-1.06
2023-02-05T14:33:37.511Z,-1.05
2023-02-05T14:36:25.508Z,-1.04
2023-02-05T14:38:55.483Z,-1.02
2023-02-05T14:41:27.670Z,-0.99
2023-02-05T14:44:02.005Z,-0.95
2023-02-05T14:46:31.636Z,-0.92
2023-02-05T14:49:01.376Z,-0.91
2023-02-05T14:51:34.108Z,-0.88
2023-02-05T14:54:04.969Z,-0.86
2023-02-05T14:56:40.753Z,-0.84
2023-02-05T14:59:49.864Z,-0.89
2023-02-05T15:02:51.900Z,-0.94
2023-02-05T15:05:29.051Z,-0.96
2023-02-05T15:08:23.013Z,-0.96
2023-02-05T15:11:08.416Z,-0.97
2023-02-05T15:13:35.459Z,-0.97
2023-02-05T15:16:15.360Z,-1.00
2023-02-05T15:18:49.362Z,-1.03
2023-02-05T15:21:27.295Z,-1.07
2023-02-05T15:24:01.646Z,-1.09
2023-02-05T15:26:49.653Z,-1.10
2023-02-05T15:29:35.616Z,-1.10
2023-02-05T15:32:16.634Z,-1.12
2023-02-05T15:34:54.729Z,-1.11
2023-02-05T15:37:41.025Z,-1.08
2023-02-05T15:40:27.423Z,-1.08
2023-02-05T15:43:16.233Z,-1.07
2023-02-05T15:45:46.645Z,-1.07
2023-02-05T15:48:24.584Z,-1.09
2023-02-05T15:51:17.649Z,-1.10
2023-02-05T15:53:49.403Z,-1.10
2023-02-05T15:56:32.872Z,-1.10
2023-02-05T15:59:11.515Z,-1.11
2023-02-05T16:01:48.086Z,-1.12
2023-02-05T16:04:31.608Z,-1.12
2023-02-05T16:06:59.682Z,-1.14
2023-02-05T16:09:28.958Z,-1.13
2023-02-05T16:11:56.078Z,-1.15
2023-02-05T16:14:28.668Z,-1.16
2023-02-05T16:17:34.016Z,-1.17
2023-02-05T16:20:07.479Z,-1.18
2023-02-05T16:22:34.069Z,-1.20
2023-02-05T16:25:06.338Z,-1.22
2023-02-05T16:27:43.460Z,-1.25
2023-02-05T16:30:40.944Z,-1.27
2023-02-05T16:33:17.463Z,-1.30
2023-02-05T16:35:48.484Z,-1.32
2023-02-05T16:38:17.087Z,-1.34
2023-02-05T16:40:48.485Z,-1.38
2023-02-05T16:43:32.269Z,-1.43
2023-02-05T16:46:08.189Z,-1.46
2023-02-05T16:48:41.721Z,-1.51
2023-02-05T16:51:31.747Z,-1.52
2023-02-05T16:54:19.454Z,-1.54
2023-02-05T16:57:13.767Z,-1.56
2023-02-05T16:59:57.146Z,-1.60
2023-02-05T17:02:42.240Z,-1.62
2023-02-05T17:05:47.721Z,-1.63
2023-02-05T17:08:14.398Z,-1.67
2023-02-05T17:10:56.461Z,-1.70
2023-02-05T17:13:43.481Z,-1.69
2023-02-05T17:16:21.021Z,-1.69
2023-02-05T17:18:59.840Z,-1.69
2023-02-05T17:21:44.333Z,-1.71
2023-02-05T17:24:10.966Z,-1.73
2023-02-05T17:26:40.950Z,-1.78
2023-02-05T17:29:14.152Z,-1.82
2023-02-05T17:31:40.827Z,-1.85
2023-02-05T17:34:07.546Z,-1.85
2023-02-05T17:36:34.247Z,-1.82
2023-02-05T17:39:01.031Z,-1.83
2023-02-05T17:41:48.747Z,-1.83
2023-02-05T17:44:18.054Z,-1.86
2023-02-05T17:46:45.255Z,-1.87
2023-02-05T17:49:11.995Z,-1.91
2023-02-05T17:51:42.905Z,-1.93
2023-02-05T17:54:14.968Z,-1.94
2023-02-05T17:56:42.222Z,-1.95
2023-02-05T17:59:12.171Z,-1.95
2023-02-05T18:01:38.914Z,-1.97
2023-02-05T18:04:05.777Z,-2.00
2023-02-05T18:06:32.447Z,-2.02
2023-02-05T18:08:59.294Z,-2.02
2023-02-05T18:11:26.077Z,-2.03
2023-02-05T18:13:52.730Z,-2.04
2023-02-05T18:16:19.448Z,-2.04
2023-02-05T18:18:47.552Z,-2.05
2023-02-05T18:21:14.498Z,-2.07
2023-02-05T18:23:41.436Z,-2.07
2023-02-05T18:26:08.774Z,-2.08
2023-02-05T18:28:35.963Z,-2.07
2023-02-05T18:31:08.456Z,-2.08
2023-02-05T18:33:36.938Z,-2.08
2023-02-05T18:36:09.250Z,-2.09
2023-02-05T18:38:36.728Z,-2.07
2023-02-05T18:41:10.943Z,-2.02
2023-02-05T18:43:38.009Z,-1.99
2023-02-05T18:46:16.050Z,-1.98
2023-02-05T18:48:46.476Z,-1.95
2023-02-05T18:51:15.874Z,-1.92
2023-02-05T18:53:44.461Z,-1.91
2023-02-05T18:56:19.839Z,-1.91
2023-02-05T18:58:56.403Z,-1.91
2023-02-05T19:01:23.361Z,-1.85
2023-02-05T19:03:52.821Z,-1.84
2023-02-05T19:06:20.748Z,-1.83
2023-02-05T19:08:48.254Z,-1.84
2023-02-05T19:11:20.319Z,-1.79
2023-02-05T19:13:47.948Z,-1.79
2023-02-05T19:16:17.765Z,-1.78
2023-02-05T19:18:46.027Z,-1.81
2023-02-05T19:21:16.308Z,-1.84
2023-02-05T19:23:44.877Z,-1.84
2023-02-05T19:26:17.588Z,-1.85
2023-02-05T19:28:46.054Z,-1.85
2023-02-05T19:31:15.037Z,-1.85
2023-02-05T19:33:42.235Z,-1.85
2023-02-05T19:36:10.667Z,-1.86
2023-02-05T19:38:39.078Z,-1.84
2023-02-05T19:41:14.372Z,-1.83
2023-02-05T19:43:43.728Z,-1.82
2023-02-05T19:46:10.482Z,-1.81
2023-02-05T19:48:37.157Z,-1.80
2023-02-05T19:51:05.570Z,-1.77
2023-02-05T19:53:32.427Z,-1.80
2023-02-05T19:56:07.307Z,-1.76
2023-02-05T19:58:36.020Z,-1.74
2023-02-05T20:01:13.074Z,-1.71
2023-02-05T20:03:40.251Z,-1.71
2023-02-05T20:06:08.412Z,-1.72
2023-02-05T20:08:35.490Z,-1.73
2023-02-05T20:11:02.595Z,-1.72
2023-02-05T20:13:31.163Z,-1.73
2023-02-05T20:16:05.368Z,-1.74
2023-02-05T20:18:32.328Z,-1.76
2023-02-05T20:20:59.461Z,-1.76
2023-02-05T20:23:26.606Z,-1.78
2023-02-05T20:25:57.568Z,-1.80
2023-02-05T20:28:28.011Z,-1.81
2023-02-05T20:31:13.175Z,-1.84
2023-02-05T20:33:40.002Z,-1.86
2023-02-05T20:36:08.952Z,-1.85
2023-02-05T20:38:35.844Z,-1.87
2023-02-05T20:41:31.991Z,-1.87
2023-02-05T20:43:58.791Z,-1.86
2023-02-05T20:46:26.219Z,-1.87
2023-02-05T20:48:53.168Z,-1.89
2023-02-05T20:51:22.757Z,-1.88
2023-02-05T20:53:50.318Z,-1.91
2023-02-05T20:56:19.555Z,-1.91
2023-02-05T20:58:47.323Z,-1.92
2023-02-05T21:01:17.690Z,-1.92
2023-02-05T21:03:46.397Z,-1.94
2023-02-05T21:06:14.505Z,-1.97
2023-02-05T21:08:43.668Z,-2.01
2023-02-05T21:11:10.443Z,-2.03
2023-02-05T21:13:37.230Z,-2.03
2023-02-05T21:16:04.214Z,-2.04
2023-02-05T21:18:31.305Z,-2.03
2023-02-05T21:21:31.515Z,-2.00
2023-02-05T21:24:04.029Z,-2.00
2023-02-05T21:26:49.374Z,-1.99
2023-02-05T21:29:19.116Z,-2.00
2023-02-05T21:31:52.840Z,-2.01
2023-02-05T21:34:22.485Z,-2.04
2023-02-05T21:36:49.767Z,-2.04
2023-02-05T21:39:17.410Z,-2.06
2023-02-05T21:41:47.685Z,-2.07
2023-02-05T21:44:14.704Z,-2.12
2023-02-05T21:46:41.406Z,-2.13
2023-02-05T21:49:10.622Z,-2.15
2023-02-05T21:51:37.773Z,-2.18
2023-02-05T21:54:06.257Z,-2.19
2023-02-05T21:56:36.151Z,-2.24
2023-02-05T21:59:02.849Z,-2.28
2023-02-05T22:01:32.488Z,-2.33
2023-02-05T22:04:01.629Z,-2.36
2023-02-05T22:06:31.015Z,-2.39
2023-02-05T22:08:58.838Z,-2.40
2023-02-05T22:11:26.337Z,-2.41
2023-02-05T22:13:54.609Z,-2.39
2023-02-05T22:16:27.235Z,-2.36
2023-02-05T22:18:54.913Z,-2.35
2023-02-05T22:21:27.506Z,-2.33
2023-02-05T22:23:56.826Z,-2.34
2023-02-05T22:26:31.161Z,-2.32
2023-02-05T22:28:59.606Z,-2.31
2023-02-05T22:31:27.561Z,-2.27
2023-02-05T22:33:54.862Z,-2.25
2023-02-05T22:36:24.026Z,-2.22
2023-02-05T22:38:52.033Z,-2.18
2023-02-05T22:41:25.130Z,-2.17
2023-02-05T22:43:53.188Z,-2.17
2023-02-05T22:46:23.780Z,-2.13
2023-02-05T22:48:53.693Z,-2.14
2023-02-05T22:51:26.808Z,-2.13
2023-02-05T22:53:54.400Z,-2.14
2023-02-05T22:56:22.083Z,-2.15
2023-02-05T22:58:50.801Z,-2.18
2023-02-05T23:01:26.055Z,-2.19
2023-02-05T23:03:52.935Z,-2.19
2023-02-05T23:06:19.590Z,-2.20
2023-02-05T23:08:52.057Z,-2.23
2023-02-05T23:11:19.551Z,-2.26
2023-02-05T23:13:46.764Z,-2.26
2023-02-05T23:16:16.153Z,-2.24
2023-02-05T23:18:43.145Z,-2.25
2023-02-05T23:21:12.528Z,-2.24
2023-02-05T23:23:39.398Z,-2.23
2023-02-05T23:26:08.361Z,-2.21
2023-02-05T23:28:35.757Z,-2.20
2023-02-05T23:31:03.010Z,-2.21
2023-02-05T23:33:30.256Z,-2.19
2023-02-05T23:35:57.056Z,-2.20
2023-02-05T23:38:25.177Z,-2.22
2023-02-05T23:40:53.710Z,-2.23
2023-02-05T23:43:21.621Z,-2.24
2023-02-05T23:45:49.687Z,-2.21
2023-02-05T23:48:16.893Z,-2.16
2023-02-05T23:50:44.576Z,-2.15
2023-02-05T23:53:11.786Z,-2.18
2023-02-05T23:55:40.547Z,-2.18
2023-02-05T23:58:08.196Z,-2.20
